Time;durP1;ratioP1;P1;durP2;ratioP2;P2;SDS_P1;SDS_P2;PMS_P1;PMS_P2;Temp;Humidity;BMP_temperature;BMP_pressure;BME280_temperature;BME280_humidity;BME280_pressure;Samples;Min_cycle;Max_cycle;Signal;HPM_P1;HPM_P2
2021/10/27 00:00:05;;;;;;;9.73;2.72;;;;;;;14.48;73.42;101975.22;5074963;28;20052;-68
2021/10/27 00:02:39;;;;;;;9.40;3.13;;;;;;;14.34;73.69;101973.56;5076300;28;20055;-70
2021/10/27 00:05:07;;;;;;;8.90;3.00;;;;;;;14.36;73.71;101968.53;5076655;28;20056;-68
2021/10/27 00:07:34;;;;;;;7.68;2.97;;;;;;;14.22;74.10;101971.28;5076560;28;20055;-67
2021/10/27 00:10:03;;;;;;;9.25;3.40;;;;;;;14.18;74.67;101969.41;5076215;28;20056;-71
2021/10/27 00:12:30;;;;;;;13.70;2.90;;;;;;;14.44;73.87;101968.63;5058347;28;20048;-71
2021/10/27 00:14:58;;;;;;;9.10;2.55;;;;;;;14.43;73.41;101974.50;5076236;28;20067;-71
2021/10/27 00:17:25;;;;;;;9.32;2.70;;;;;;;14.56;73.17;101977.25;5074719;28;20052;-66
2021/10/27 00:19:53;;;;;;;11.20;3.05;;;;;;;14.61;72.94;101973.53;5076170;28;20052;-67
2021/10/27 00:22:21;;;;;;;7.75;2.78;;;;;;;14.66;72.24;101974.25;5074266;28;20049;-71
2021/10/27 00:24:48;;;;;;;11.13;3.17;;;;;;;14.72;72.19;101971.38;5075010;28;20048;-66
2021/10/27 00:27:15;;;;;;;11.07;3.50;;;;;;;14.62;72.28;101981.56;5074651;28;20056;-71
2021/10/27 00:29:43;;;;;;;10.35;3.85;;;;;;;14.36;72.84;101982.41;5074461;28;20058;-68
2021/10/27 00:32:11;;;;;;;8.63;3.13;;;;;;;14.38;73.21;101983.72;5076471;28;20052;-71
2021/10/27 00:34:38;;;;;;;8.40;3.08;;;;;;;14.37;73.06;101984.03;5075815;28;20492;-71
2021/10/27 00:37:05;;;;;;;6.80;3.00;;;;;;;14.20;73.59;101989.34;5074533;28;20056;-66
2021/10/27 00:39:34;;;;;;;8.38;3.35;;;;;;;13.91;74.77;101981.31;5066451;28;20049;-71
2021/10/27 00:42:03;;;;;;;9.77;2.97;;;;;;;14.10;74.29;101984.81;5055350;28;20052;-67
2021/10/27 00:44:31;;;;;;;10.90;3.00;;;;;;;13.83;74.90;101986.69;5055731;28;20053;-70
2021/10/27 00:47:01;;;;;;;8.23;3.00;;;;;;;14.03;74.59;101983.56;5056045;28;20053;-67
2021/10/27 00:49:30;;;;;;;8.20;3.20;;;;;;;13.91;74.45;101983.25;5055678;28;20436;-71
2021/10/27 00:51:59;;;;;;;11.68;3.17;;;;;;;13.96;74.71;101983.16;5054438;28;20052;-71
2021/10/27 00:54:27;;;;;;;12.57;3.60;;;;;;;14.13;74.29;101988.91;5055895;28;20049;-71
2021/10/27 00:56:56;;;;;;;9.30;3.10;;;;;;;13.96;74.34;101992.28;5054502;28;20294;-68
2021/10/27 00:59:24;;;;;;;8.70;3.47;;;;;;;13.91;74.78;101991.56;5037955;28;20059;-68
2021/10/27 01:01:52;;;;;;;9.77;2.63;;;;;;;13.78;75.41;101989.56;5055063;28;20144;-71
2021/10/27 01:04:22;;;;;;;7.90;2.60;;;;;;;14.05;74.68;101993.22;5055519;28;20051;-67
2021/10/27 01:06:49;;;;;;;6.78;2.70;;;;;;;14.01;74.30;101992.19;5043702;28;20049;-70
2021/10/27 01:09:18;;;;;;;12.65;3.83;;;;;;;14.52;72.61;101987.31;5050776;28;20061;-71
2021/10/27 01:11:45;;;;;;;14.65;3.35;;;;;;;14.26;72.66;101988.16;5035222;28;20067;-71
2021/10/27 01:14:13;;;;;;;11.25;3.75;;;;;;;13.88;74.19;101983.88;5049920;28;20049;-67
2021/10/27 01:16:40;;;;;;;10.98;3.35;;;;;;;13.82;74.72;101988.66;5035130;28;20049;-69
2021/10/27 01:19:08;;;;;;;6.38;2.90;;;;;;;13.91;74.38;101980.47;5035266;28;20060;-67
2021/10/27 01:21:40;;;;;;;8.35;3.38;;;;;;;13.83;74.76;101986.69;5034878;28;20053;-71
2021/10/27 01:24:07;;;;;;;8.82;3.33;;;;;;;13.70;74.85;101968.94;5034480;28;20061;-72
2021/10/27 01:26:35;;;;;;;10.10;3.38;;;;;;;13.90;74.97;101976.06;5035513;28;20057;-70
2021/10/27 01:29:02;;;;;;;9.15;3.50;;;;;;;13.96;74.42;101977.63;5050673;28;20060;-67
2021/10/27 01:31:29;;;;;;;11.63;3.67;;;;;;;14.02;74.21;101977.19;5034692;28;20045;-67
2021/10/27 01:33:58;;;;;;;8.45;3.28;;;;;;;13.93;74.28;101972.69;5033627;28;20520;-71
2021/10/27 01:36:25;;;;;;;6.75;3.05;;;;;;;13.84;74.51;101969.81;5034540;28;20053;-72
2021/10/27 01:38:52;;;;;;;10.32;3.35;;;;;;;14.03;74.11;101966.94;5058129;28;20075;-71
2021/10/27 01:41:20;;;;;;;7.85;3.20;;;;;;;13.77;74.48;101968.56;5074661;28;20554;-71
2021/10/27 01:43:52;;;;;;;11.85;3.63;;;;;;;13.84;74.53;101961.50;5075331;28;20048;-67
2021/10/27 01:46:27;;;;;;;9.70;3.50;;;;;;;13.82;74.54;101969.28;5073350;28;20048;-67
2021/10/27 01:48:54;;;;;;;6.70;3.17;;;;;;;13.84;74.24;101957.91;5075183;28;20056;-67
2021/10/27 01:51:21;;;;;;;10.52;3.88;;;;;;;13.79;74.52;101964.34;5057259;28;20053;-68
2021/10/27 01:53:49;;;;;;;9.65;3.47;;;;;;;13.84;74.16;101957.91;5057799;28;20056;-71
2021/10/27 01:56:16;;;;;;;11.32;4.20;;;;;;;14.05;74.12;101956.38;5073571;28;20083;-67
2021/10/27 01:58:45;;;;;;;7.22;3.15;;;;;;;14.16;73.38;101952.28;5074901;28;20511;-70
2021/10/27 02:01:12;;;;;;;8.27;3.25;;;;;;;14.08;73.00;101951.06;5075139;28;20067;-71
2021/10/27 02:03:40;;;;;;;9.38;3.38;;;;;;;13.94;74.05;101952.16;5074865;28;20057;-67
2021/10/27 02:06:08;;;;;;;9.60;3.20;;;;;;;14.03;73.57;101940.09;5073897;28;20056;-67
2021/10/27 02:08:35;;;;;;;11.18;3.67;;;;;;;13.93;73.37;101953.31;5056705;28;20060;-71
2021/10/27 02:11:03;;;;;;;10.63;3.42;;;;;;;13.80;74.27;101951.31;5073526;28;20455;-71
2021/10/27 02:13:50;;;;;;;11.27;3.90;;;;;;;13.84;74.38;101935.75;5074959;28;20056;-68
2021/10/27 02:16:18;;;;;;;8.10;3.17;;;;;;;13.79;74.45;101933.88;5074522;28;20404;-66
2021/10/27 02:18:45;;;;;;;9.60;3.90;;;;;;;13.73;74.68;101937.03;5074862;28;20052;-67
2021/10/27 02:21:13;;;;;;;9.35;3.83;;;;;;;13.61;75.24;101932.00;5073475;28;20526;-68
2021/10/27 02:23:40;;;;;;;9.38;3.95;;;;;;;13.51;75.58;101933.00;5074827;28;20056;-67
2021/10/27 02:26:07;;;;;;;10.32;3.92;;;;;;;13.51;75.66;101933.00;5076336;28;20380;-67
2021/10/27 02:28:35;;;;;;;13.25;4.10;;;;;;;13.60;75.48;101940.63;5078356;28;20060;-67
2021/10/27 02:31:03;;;;;;;15.63;3.80;;;;;;;13.68;75.23;101946.28;5077847;28;20052;-67
2021/10/27 02:33:30;;;;;;;8.07;3.53;;;;;;;13.67;75.18;101946.59;5076755;28;20055;-67
2021/10/27 02:36:00;;;;;;;10.68;3.70;;;;;;;13.56;75.30;101952.28;5044416;28;20417;-68
2021/10/27 02:38:42;;;;;;;8.45;3.40;;;;;;;13.28;76.48;101939.50;5060127;28;20056;-67
2021/10/27 02:41:12;;;;;;;14.75;4.25;;;;;;;13.43;76.26;101949.47;5058104;28;20049;-71
2021/10/27 02:43:40;;;;;;;7.88;3.20;;;;;;;13.56;76.01;101948.72;5058091;28;20052;-71
2021/10/27 02:46:09;;;;;;;11.00;3.67;;;;;;;13.56;75.60;101946.75;5057690;28;20056;-70
2021/10/27 02:48:37;;;;;;;12.85;4.18;;;;;;;13.32;76.66;101936.91;5058157;28;20052;-71
2021/10/27 02:51:06;;;;;;;9.32;4.38;;;;;;;13.39;76.28;101938.19;5058005;28;20045;-71
2021/10/27 02:53:33;;;;;;;8.27;4.65;;;;;;;13.52;75.89;101950.44;5057700;28;20048;-67
2021/10/27 02:56:00;;;;;;;11.15;3.58;;;;;;;13.49;76.22;101946.31;5023174;28;20067;-67
2021/10/27 02:58:28;;;;;;;8.75;3.35;;;;;;;13.41;76.30;101944.25;5057850;28;20377;-67
2021/10/27 03:00:56;;;;;;;8.68;4.10;;;;;;;13.69;75.66;101945.13;5057496;28;20053;-67
2021/10/27 03:03:23;;;;;;;10.05;3.58;;;;;;;13.41;76.00;101943.41;5055660;28;20068;-67
2021/10/27 03:05:50;;;;;;;8.68;4.22;;;;;;;13.38;76.73;101944.88;5057095;28;20060;-68
2021/10/27 03:08:18;;;;;;;11.55;3.60;;;;;;;13.22;76.75;101940.69;5041868;28;20061;-67
2021/10/27 03:10:45;;;;;;;9.55;3.60;;;;;;;13.37;76.72;101936.88;5037412;28;20057;-67
2021/10/27 03:13:13;;;;;;;8.48;3.75;;;;;;;13.32;76.80;101943.28;5037504;28;20050;-67
2021/10/27 03:15:40;;;;;;;8.98;3.28;;;;;;;13.39;76.77;101938.19;5036094;28;20053;-67
2021/10/27 03:18:08;;;;;;;9.07;3.65;;;;;;;13.29;76.52;101943.06;5037673;28;20046;-67
2021/10/27 03:20:36;;;;;;;8.77;3.78;;;;;;;13.36;76.94;101935.19;5052641;28;20061;-67
2021/10/27 03:23:03;;;;;;;8.27;3.75;;;;;;;13.35;76.95;101930.81;5036705;28;20378;-66
2021/10/27 03:25:30;;;;;;;11.27;3.80;;;;;;;13.51;76.12;101929.44;5037212;28;20079;-67
2021/10/27 03:27:58;;;;;;;12.70;4.28;;;;;;;13.50;76.02;101930.53;5052448;28;20058;-67
2021/10/27 03:30:26;;;;;;;6.40;3.17;;;;;;;13.23;77.00;101924.91;5036994;28;20056;-66
2021/10/27 03:32:54;;;;;;;9.52;3.70;;;;;;;13.23;76.90;101922.16;5035512;28;20045;-68
2021/10/27 03:35:21;;;;;;;10.43;3.58;;;;;;;13.37;76.64;101920.25;5019742;28;20496;-72
2021/10/27 03:37:49;;;;;;;8.90;3.50;;;;;;;13.36;76.84;101919.44;5036689;28;20420;-67
2021/10/27 03:40:17;;;;;;;10.52;3.60;;;;;;;13.54;76.35;101910.25;5067883;28;20060;-69
2021/10/27 03:42:44;;;;;;;11.05;3.65;;;;;;;13.61;75.75;101909.84;5076708;28;20484;-67
2021/10/27 03:45:12;;;;;;;10.30;3.45;;;;;;;13.57;75.83;101917.13;5076811;28;20075;-67
2021/10/27 03:47:39;;;;;;;8.25;3.72;;;;;;;13.53;75.92;101916.06;5075461;28;20041;-68
2021/10/27 03:50:10;;;;;;;13.00;4.28;;;;;;;13.65;75.54;101921.94;5076975;28;20059;-67
2021/10/27 03:52:37;;;;;;;7.47;3.38;;;;;;;13.49;75.55;101924.16;5076415;28;20057;-67
2021/10/27 03:55:05;;;;;;;14.32;3.60;;;;;;;13.31;76.84;101925.06;5076674;28;20067;-67
2021/10/27 03:57:32;;;;;;;10.95;4.28;;;;;;;13.32;76.64;101929.44;5076660;28;20056;-67
2021/10/27 03:59:59;;;;;;;13.40;3.88;;;;;;;13.41;76.66;101938.72;5076532;28;20052;-67
2021/10/27 04:02:27;;;;;;;9.98;4.22;;;;;;;13.30;76.93;101931.69;5076081;28;20045;-67
2021/10/27 04:04:56;;;;;;;10.17;4.00;;;;;;;13.43;76.72;101933.69;5058552;28;20068;-68
2021/10/27 04:07:23;;;;;;;10.45;4.45;;;;;;;13.50;76.14;101930.53;5076477;28;20052;-66
2021/10/27 04:09:50;;;;;;;10.73;4.53;;;;;;;13.24;77.01;101921.84;5075032;28;20052;-67
2021/10/27 04:12:17;;;;;;;14.95;4.75;;;;;;;13.17;77.12;101921.41;5075969;28;20166;-67
2021/10/27 04:14:45;;;;;;;11.98;5.57;;;;;;;12.88;77.91;101925.44;5074895;28;20047;-67
2021/10/27 04:17:15;;;;;;;9.83;5.33;;;;;;;12.91;77.77;101914.59;5074967;28;20652;-71
2021/10/27 04:19:44;;;;;;;12.45;5.35;;;;;;;12.95;77.78;101914.81;5059057;28;20119;-68
2021/10/27 04:22:14;;;;;;;14.63;5.32;;;;;;;12.84;77.96;101924.38;5058704;28;20044;-70
2021/10/27 04:24:41;;;;;;;13.23;5.75;;;;;;;12.67;78.35;101926.84;5076446;28;20408;-71
2021/10/27 04:27:14;;;;;;;15.88;6.22;;;;;;;12.63;78.67;101932.16;5074989;28;20049;-71
2021/10/27 04:29:41;;;;;;;11.52;5.50;;;;;;;12.75;78.16;101929.78;5074732;28;20063;-71
2021/10/27 04:32:12;;;;;;;11.75;5.88;;;;;;;12.64;78.53;101936.56;5075719;28;20665;-71
2021/10/27 04:34:39;;;;;;;10.18;5.53;;;;;;;12.79;78.01;101936.34;5075849;28;20048;-71
2021/10/27 04:37:08;;;;;;;10.82;5.38;;;;;;;12.99;77.57;101940.78;5076430;28;20063;-71
2021/10/27 04:39:36;;;;;;;10.55;5.60;;;;;;;12.79;77.68;101930.81;5065982;28;20049;-71
2021/10/27 04:42:03;;;;;;;14.75;6.32;;;;;;;12.55;78.32;101943.06;5054135;28;20068;-71
2021/10/27 04:44:30;;;;;;;10.95;5.60;;;;;;;12.55;78.24;101951.34;5054239;28;20052;-71
2021/10/27 04:47:01;;;;;;;13.80;6.20;;;;;;;12.64;78.27;101944.03;5055720;28;20055;-71
2021/10/27 04:49:29;;;;;;;12.68;5.63;;;;;;;12.48;78.53;101950.88;5054838;28;20423;-70
2021/10/27 04:52:01;;;;;;;11.52;5.60;;;;;;;12.36;79.39;101948.56;5055512;28;20060;-71
2021/10/27 04:54:29;;;;;;;14.40;6.15;;;;;;;12.35;79.28;101942.22;5037438;28;20056;-71
2021/10/27 04:57:01;;;;;;;14.02;6.63;;;;;;;12.36;79.54;101948.56;5021609;28;20056;-71
2021/10/27 04:59:44;;;;;;;13.50;6.22;;;;;;;12.32;79.54;101950.25;5022645;28;20060;-72
2021/10/27 05:02:16;;;;;;;17.17;6.32;;;;;;;12.27;79.86;101948.38;5022807;28;20366;-71
2021/10/27 05:04:49;;;;;;;13.77;6.00;;;;;;;12.16;80.18;101946.03;5006833;28;20045;-71
2021/10/27 05:07:19;;;;;;;17.52;6.63;;;;;;;12.18;79.95;101946.56;5049972;28;20064;-72
2021/10/27 05:09:47;;;;;;;15.07;6.78;;;;;;;12.34;79.83;101939.75;5023041;28;20060;-71
2021/10/27 05:12:20;;;;;;;;;;;;;;;12.28;79.16;101952.78;5038438;28;20068;-71
2021/10/27 05:14:56;;;;;;;14.10;6.80;;;;;;;12.28;79.45;101954.72;5053882;28;19920;-68
2021/10/27 05:17:23;;;;;;;13.45;6.82;;;;;;;12.27;79.43;101948.38;5021617;28;20052;-67
2021/10/27 05:20:01;;;;;;;14.63;6.50;;;;;;;12.23;79.29;101952.84;5054143;28;20044;-68
2021/10/27 05:22:29;;;;;;;12.98;7.40;;;;;;;12.33;79.19;101949.13;5053674;28;20053;-67
2021/10/27 05:25:00;;;;;;;14.23;7.40;;;;;;;11.83;80.17;101939.50;5054209;28;20060;-69
2021/10/27 05:27:31;;;;;;;18.60;7.65;;;;;;;11.84;80.53;101934.78;5053092;28;20049;-67
2021/10/27 05:29:58;;;;;;;13.55;7.88;;;;;;;11.63;80.96;101941.63;5070370;28;20057;-68
2021/10/27 05:32:26;;;;;;;12.98;7.60;;;;;;;11.67;81.68;101942.69;5053647;28;20401;-68
2021/10/27 05:34:53;;;;;;;14.85;7.93;;;;;;;12.15;80.03;101936.09;5055287;28;20037;-67
2021/10/27 05:37:20;;;;;;;19.95;7.88;;;;;;;12.03;79.92;101927.41;5055233;28;20049;-68
2021/10/27 05:39:47;;;;;;;16.40;7.95;;;;;;;11.90;80.19;101931.69;5065541;28;20053;-68
2021/10/27 05:42:20;;;;;;;14.60;8.27;;;;;;;12.03;79.88;101930.97;5075027;28;20067;-68
2021/10/27 05:44:50;;;;;;;14.07;7.70;;;;;;;12.22;79.08;101931.84;5074768;28;20049;-68
2021/10/27 05:47:17;;;;;;;16.13;8.75;;;;;;;11.92;79.27;101920.34;5075261;28;20045;-73
2021/10/27 05:50:06;;;;;;;19.55;9.60;;;;;;;11.85;79.64;101925.41;5074111;28;20040;-69
2021/10/27 05:55:28;;;;;;;15.98;8.32;;;;;;;11.95;79.67;101917.00;5074471;28;20047;-75
2021/10/27 05:57:55;;;;;;;17.23;8.18;;;;;;;12.06;78.99;101927.66;5075825;28;20048;-72
2021/10/27 06:00:23;;;;;;;18.20;7.93;;;;;;;12.03;79.08;101927.41;5074738;28;20075;-72
2021/10/27 06:02:53;;;;;;;16.85;8.48;;;;;;;11.89;79.49;101929.22;5079260;28;20044;-72
2021/10/27 06:05:20;;;;;;;17.60;8.27;;;;;;;12.18;78.52;101921.69;5080440;28;20385;-72
2021/10/27 06:07:48;;;;;;;16.45;8.80;;;;;;;11.85;78.87;101923.47;5079788;28;20060;-72
2021/10/27 06:10:21;;;;;;;16.02;8.73;;;;;;;11.82;79.00;101920.47;5079250;28;20061;-71
2021/10/27 06:12:51;;;;;;;16.70;8.63;;;;;;;11.82;79.37;101923.22;5079024;28;20056;-72
2021/10/27 06:15:19;;;;;;;;;;;;;;;11.66;80.11;101924.50;5075894;28;20041;-70
2021/10/27 06:17:46;;;;;;;15.80;8.40;;;;;;;11.61;80.45;101925.31;5050878;28;19921;-71
2021/10/27 06:20:17;;;;;;;20.83;9.23;;;;;;;11.43;80.90;101928.00;5047357;28;20126;-67
2021/10/27 06:22:45;;;;;;;17.50;9.00;;;;;;;11.43;80.91;101925.22;5058998;28;20389;-66
2021/10/27 06:25:13;;;;;;;16.00;8.98;;;;;;;11.27;81.38;101932.81;5058576;28;20484;-67
2021/10/27 06:27:45;;;;;;;17.50;9.02;;;;;;;11.43;81.18;101930.75;5058215;28;20057;-67
2021/10/27 06:30:40;;;;;;;17.20;9.10;;;;;;;11.35;81.43;101926.66;5052203;28;20055;-67
2021/10/27 06:35:55;;;;;;;19.38;9.65;;;;;;;11.37;81.40;101924.44;5050112;28;20041;-66
2021/10/27 06:46:38;;;;;;;22.45;9.93;;;;;;;11.29;82.24;101938.88;5049234;28;20056;-67
2021/10/27 06:49:11;;;;;;;21.40;10.15;;;;;;;11.61;81.38;101944.63;5057229;28;20037;-65
2021/10/27 06:51:39;;;;;;;23.52;10.07;;;;;;;11.69;80.96;101957.03;5052803;28;20057;-65
2021/10/27 06:54:06;;;;;;;23.20;10.38;;;;;;;11.86;80.45;101952.72;5046139;28;20059;-64
2021/10/27 06:56:35;;;;;;;21.10;10.38;;;;;;;11.80;79.69;101958.59;5055624;28;20419;-63
2021/10/27 07:07:20;;;;;;;19.20;10.13;;;;;;;12.06;78.22;101966.31;5056650;28;20052;-63
2021/10/27 07:15:33;;;;;;;20.00;10.63;;;;;;;11.95;77.98;101964.78;5056902;28;20041;-63
2021/10/27 07:18:00;;;;;;;24.52;9.85;;;;;;;12.15;77.58;101967.28;5057406;28;20045;-63
2021/10/27 07:20:28;;;;;;;18.40;9.60;;;;;;;12.29;77.15;101971.00;5060776;28;20060;-63
2021/10/27 07:23:00;;;;;;;21.52;10.60;;;;;;;12.08;77.37;101974.31;5054743;28;20060;-64
2021/10/27 07:25:32;;;;;;;20.08;11.20;;;;;;;12.34;76.76;101981.19;5072575;28;20500;-65
2021/10/27 07:27:59;;;;;;;18.20;9.93;;;;;;;12.20;76.66;101983.00;5050251;28;20044;-63
2021/10/27 07:30:27;;;;;;;23.30;10.00;;;;;;;12.29;76.53;101993.09;5055012;28;20053;-66
2021/10/27 07:32:57;;;;;;;20.77;10.05;;;;;;;12.83;74.55;101995.44;5052291;28;20045;-64
2021/10/27 07:35:32;;;;;;;21.17;11.07;;;;;;;12.41;74.94;101995.47;5052456;28;20056;-64
2021/10/27 07:40:48;;;;;;;20.98;12.15;;;;;;;11.84;77.65;101995.50;5054934;28;20072;-67
2021/10/27 07:43:24;;;;;;;24.98;12.35;;;;;;;11.49;78.92;101998.59;5055068;28;20045;-67
2021/10/27 07:45:53;;;;;;;19.98;12.10;;;;;;;11.55;79.60;101992.72;5054988;28;20079;-67
2021/10/27 07:48:24;;;;;;;23.20;12.63;;;;;;;11.69;79.31;102002.03;5054657;28;20052;-65
2021/10/27 07:50:52;;;;;;;22.35;13.07;;;;;;;11.76;78.58;102004.44;5055124;28;20040;-66
2021/10/27 07:53:20;;;;;;;24.92;12.30;;;;;;;11.66;78.99;102010.06;5054889;28;20056;-65
2021/10/27 07:55:52;;;;;;;22.45;11.85;;;;;;;11.77;79.01;102006.91;5056800;28;20041;-67
2021/10/27 07:58:21;;;;;;;21.42;11.60;;;;;;;11.62;79.15;102007.00;5055686;28;20060;-66
2021/10/27 08:00:57;;;;;;;19.38;12.02;;;;;;;11.67;79.52;102014.44;5056722;28;20049;-65
2021/10/27 08:03:30;;;;;;;21.35;12.05;;;;;;;11.64;78.99;102015.00;5072274;28;20049;-65
2021/10/27 08:06:03;;;;;;;18.48;12.07;;;;;;;11.58;79.28;102011.44;5055877;28;20048;-65
2021/10/27 08:08:30;;;;;;;19.83;13.15;;;;;;;11.46;79.92;102019.28;5065363;28;20059;-65
2021/10/27 08:10:58;;;;;;;23.27;13.80;;;;;;;11.45;79.71;102016.81;5056396;28;20057;-65
2021/10/27 08:13:25;;;;;;;26.77;14.57;;;;;;;11.65;79.78;102017.50;5056033;28;20049;-65
2021/10/27 08:15:54;;;;;;;25.58;12.93;;;;;;;11.70;79.17;102017.44;5054751;28;20060;-66
2021/10/27 08:18:22;;;;;;;27.77;14.32;;;;;;;11.75;79.36;102016.59;5055828;28;20061;-65
2021/10/27 08:20:50;;;;;;;21.80;13.63;;;;;;;11.77;78.85;102023.47;5054839;28;20518;-66
2021/10/27 08:23:20;;;;;;;22.60;13.88;;;;;;;11.56;79.67;102015.63;5055525;28;20053;-66
2021/10/27 08:25:52;;;;;;;24.00;13.75;;;;;;;11.76;79.27;102016.31;5056385;28;20033;-66
2021/10/27 08:28:25;;;;;;;23.35;15.18;;;;;;;11.86;78.82;102020.91;5038350;28;20048;-65
2021/10/27 08:35:58;;;;;;;24.40;13.60;;;;;;;12.13;78.37;102005.44;5055662;28;20504;-65
2021/10/27 08:38:25;;;;;;;22.23;13.68;;;;;;;12.36;77.23;102004.63;5055067;28;20051;-65
2021/10/27 08:40:54;;;;;;;27.80;15.02;;;;;;;12.20;76.79;102007.88;5072905;28;20075;-68
2021/10/27 08:43:24;;;;;;;29.40;15.27;;;;;;;12.06;77.65;101995.88;5055442;28;20041;-65
2021/10/27 08:45:52;;;;;;;24.23;15.07;;;;;;;12.17;77.76;102000.97;5055259;28;20045;-67
2021/10/27 08:48:21;;;;;;;23.88;14.35;;;;;;;12.22;77.73;101997.34;5038460;28;20295;-66
2021/10/27 08:50:50;;;;;;;39.45;15.20;;;;;;;11.95;78.43;101994.31;5020767;28;20056;-67
2021/10/27 08:53:19;;;;;;;28.08;15.88;;;;;;;12.09;78.34;101998.88;5058569;28;20048;-65
2021/10/27 08:55:49;;;;;;;24.10;14.13;;;;;;;12.27;77.88;102002.81;5061010;28;20040;-66
2021/10/27 08:58:35;;;;;;;24.77;14.82;;;;;;;12.21;77.78;101998.44;5055286;28;20057;-66
2021/10/27 09:39:12;;;;;;;23.77;16.48;;;;;;;11.81;80.17;101993.34;5039383;28;20056;-67
2021/10/27 10:07:03;;;;;;;23.27;15.55;;;;;;;11.75;80.87;101994.53;4973414;28;20567;-67
2021/10/27 10:09:32;;;;;;;24.63;15.00;;;;;;;11.90;80.55;101991.59;5045323;28;20053;-67
2021/10/27 10:12:01;;;;;;;22.40;15.23;;;;;;;12.17;79.91;101994.63;5038383;28;20061;-66
2021/10/27 10:14:28;;;;;;;23.23;14.35;;;;;;;12.34;79.22;101990.28;5052348;28;20059;-67
2021/10/27 10:16:59;;;;;;;26.45;14.32;;;;;;;12.46;78.47;101996.19;5036905;28;20049;-67
2021/10/27 10:19:38;;;;;;;20.30;13.73;;;;;;;12.47;78.67;101994.28;5053222;28;20075;-68
2021/10/27 10:22:06;;;;;;;22.08;13.60;;;;;;;12.50;78.50;101993.69;5052977;28;20049;-67
2021/10/27 10:24:35;;;;;;;23.80;13.85;;;;;;;12.53;78.36;101995.03;5053193;28;20059;-65
2021/10/27 10:27:14;;;;;;;22.03;14.17;;;;;;;12.60;78.25;102001.88;5036616;28;20055;-67
2021/10/27 10:29:51;;;;;;;19.73;14.27;;;;;;;12.74;77.73;102000.03;5054124;28;20519;-67
2021/10/27 10:32:23;;;;;;;24.52;14.75;;;;;;;12.97;76.54;101995.56;5052411;28;20069;-68
2021/10/27 10:34:54;;;;;;;21.65;15.65;;;;;;;12.74;77.31;101990.91;5054507;28;20057;-66
2021/10/27 10:37:37;;;;;;;19.52;15.07;;;;;;;12.66;78.02;101995.13;5054162;28;20041;-67
2021/10/27 10:40:38;;;;;;;21.48;14.60;;;;;;;12.76;77.79;101996.97;5068134;28;20044;-67
2021/10/27 11:22:14;;;;;;;21.58;15.38;;;;;;;13.62;75.53;101969.63;5063005;28;20053;-66
2021/10/27 11:40:27;;;;;;;19.95;11.95;;;;;;;14.09;73.42;101933.28;5050313;28;20508;-66
2021/10/27 11:48:06;;;;;;;18.63;10.93;;;;;;;14.34;72.71;101929.22;5070081;28;20468;-68
2021/10/27 11:50:36;;;;;;;20.83;11.20;;;;;;;14.54;72.00;101926.00;5056240;28;20060;-66
2021/10/27 11:53:07;;;;;;;16.30;10.50;;;;;;;14.70;71.49;101912.63;5056301;28;20063;-66
2021/10/27 11:55:37;;;;;;;24.50;12.07;;;;;;;15.03;69.84;101909.31;5056273;28;20052;-65
2021/10/27 11:58:04;;;;;;;;;;;;;;;14.82;70.33;101905.38;5056011;28;20045;-65
2021/10/27 12:00:47;;;;;;;14.25;9.68;;;;;;;14.80;70.52;101902.13;5055508;28;19921;-65
2021/10/27 12:03:17;;;;;;;16.77;10.35;;;;;;;15.07;69.95;101890.09;5055664;28;20437;-66
2021/10/27 12:14:11;;;;;;;14.75;10.95;;;;;;;15.12;68.52;101882.47;5052393;28;20045;-66
2021/10/27 12:19:30;;;;;;;16.03;10.23;;;;;;;15.28;68.30;101867.06;5055123;28;20045;-65
2021/10/27 12:22:03;;;;;;;17.90;10.77;;;;;;;15.52;67.81;101861.19;5054583;28;20045;-66
2021/10/27 12:24:38;;;;;;;18.38;11.30;;;;;;;15.24;68.51;101854.13;5053051;28;20045;-67
2021/10/27 12:27:35;;;;;;;16.40;9.93;;;;;;;15.30;68.45;101852.88;5043167;28;20056;-66
2021/10/27 12:30:06;;;;;;;15.43;9.85;;;;;;;15.51;67.70;101845.69;5065627;28;20052;-66
2021/10/27 12:32:34;;;;;;;21.52;10.10;;;;;;;15.49;68.15;101842.41;5030422;28;20492;-68
2021/10/27 12:35:11;;;;;;;18.30;10.55;;;;;;;15.68;67.04;101842.97;5034698;28;20053;-67
2021/10/27 12:37:48;;;;;;;24.08;10.05;;;;;;;15.47;68.11;101839.13;5054565;28;20041;-66
2021/10/27 12:40:34;;;;;;;22.88;9.73;;;;;;;15.61;67.42;101837.06;5053926;28;20064;-67
2021/10/27 12:43:03;;;;;;;14.05;8.98;;;;;;;15.55;67.51;101824.47;5060908;28;20048;-66
2021/10/27 12:45:44;;;;;;;15.95;8.80;;;;;;;15.29;68.63;101820.72;5046144;28;20049;-66
2021/10/27 12:48:17;;;;;;;19.05;9.25;;;;;;;15.24;69.42;101818.88;5055087;28;20611;-66
2021/10/27 12:50:51;;;;;;;13.45;8.07;;;;;;;15.63;68.26;101813.41;5055015;28;20048;-65
2021/10/27 12:53:41;;;;;;;16.75;8.35;;;;;;;15.77;67.40;101816.06;5054564;28;20653;-66
2021/10/27 12:56:17;;;;;;;16.08;8.35;;;;;;;15.51;67.75;101810.41;5053583;28;20052;-67
2021/10/27 12:58:50;;;;;;;15.80;8.15;;;;;;;15.60;68.03;101813.22;5049384;28;20053;-66
2021/10/27 13:22:38;;;;;;;12.02;7.07;;;;;;;16.65;64.82;101775.81;5069231;28;20618;-66
2021/10/27 13:33:18;;;;;;;11.60;6.55;;;;;;;17.04;63.78;101766.41;5055148;28;20052;-68
2021/10/27 13:35:46;;;;;;;12.18;6.13;;;;;;;16.70;64.60;101762.53;5052188;28;20049;-66
2021/10/27 13:38:14;;;;;;;11.65;5.78;;;;;;;16.68;64.78;101758.47;5044576;28;20548;-66
2021/10/27 13:40:44;;;;;;;11.20;5.60;;;;;;;16.48;65.20;101757.16;5062961;28;20796;-66
2021/10/27 14:07:59;;;;;;;9.93;3.97;;;;;;;17.48;61.10;101716.66;5053698;28;20052;-66
2021/10/27 14:10:47;;;;;;;8.40;3.53;;;;;;;17.46;61.22;101713.41;5054178;28;20049;-66
2021/10/27 14:13:22;;;;;;;7.68;3.30;;;;;;;17.27;61.50;101712.13;5055589;28;20053;-67
2021/10/27 14:41:22;;;;;;;13.13;4.20;;;;;;;17.11;61.96;101692.38;5056046;28;20044;-66
2021/10/27 15:19:53;;;;;;;8.10;3.05;;;;;;;17.48;60.04;101655.38;5046620;28;20488;-66
2021/10/27 15:51:24;;;;;;;6.88;2.53;;;;;;;17.71;57.74;101647.53;5054961;28;20037;-68
2021/10/27 15:53:55;;;;;;;6.75;2.42;;;;;;;17.70;57.51;101646.69;5056199;28;20065;-66
2021/10/27 15:56:23;;;;;;;8.65;3.00;;;;;;;17.71;57.29;101650.31;5054031;28;20049;-64
2021/10/27 15:58:50;;;;;;;5.80;2.30;;;;;;;17.27;57.55;101642.50;5054610;28;20535;-64
2021/10/27 16:01:18;;;;;;;6.00;2.50;;;;;;;17.32;57.47;101645.94;5052226;28;20055;-68
2021/10/27 16:03:45;;;;;;;7.28;2.83;;;;;;;17.35;57.29;101648.03;5054561;28;20520;-64
2021/10/27 16:06:15;;;;;;;6.93;2.55;;;;;;;17.38;56.73;101641.00;5054274;28;20056;-66
2021/10/27 16:08:46;;;;;;;6.05;2.40;;;;;;;17.30;56.68;101637.09;5054116;28;20064;-66
2021/10/27 16:11:14;;;;;;;7.53;2.53;;;;;;;17.27;56.58;101643.34;5055183;28;20064;-64
2021/10/27 16:13:41;;;;;;;8.65;3.17;;;;;;;17.36;56.62;101637.72;5052717;28;20057;-64
2021/10/27 16:16:12;;;;;;;7.25;2.78;;;;;;;17.33;56.45;101638.41;5051694;28;20543;-64
2021/10/27 16:18:40;;;;;;;4.47;2.35;;;;;;;17.28;56.30;101638.56;5055208;28;20041;-63
2021/10/27 16:21:09;;;;;;;5.63;2.20;;;;;;;16.96;57.22;101636.44;5055437;28;20049;-65
2021/10/27 16:23:37;;;;;;;6.38;2.80;;;;;;;16.96;57.52;101639.22;5037914;28;20381;-65
2021/10/27 16:26:05;;;;;;;11.02;2.90;;;;;;;17.18;56.93;101634.22;5050327;28;20420;-64
2021/10/27 16:28:33;;;;;;;7.45;2.92;;;;;;;17.15;56.82;101637.69;5056192;28;20163;-64
2021/10/27 16:31:01;;;;;;;9.00;3.75;;;;;;;17.09;56.94;101641.78;5055774;28;20049;-64
2021/10/27 16:33:28;;;;;;;14.30;3.65;;;;;;;16.95;57.49;101632.84;5055893;28;20404;-65
2021/10/27 16:35:56;;;;;;;10.57;3.28;;;;;;;17.03;57.54;101629.22;5055183;28;20045;-64
2021/10/27 16:38:24;;;;;;;11.15;3.10;;;;;;;17.06;57.78;101633.28;5055535;28;20052;-65
2021/10/27 16:40:51;;;;;;;14.82;3.53;;;;;;;16.61;58.51;101633.81;5049325;28;20049;-64
2021/10/27 16:43:19;;;;;;;9.60;3.45;;;;;;;16.74;58.59;101634.72;5040616;28;20045;-65
2021/10/27 16:45:48;;;;;;;7.55;3.42;;;;;;;16.91;58.12;101636.63;5054898;28;20053;-69